sensor_id;sensor_type;location;lat;lon;timestamp;temperature;humidity
23550;DHT22;11953;49.010;8.608;2022-07-21T00:01:52;22.40;99.90
23550;DHT22;11953;49.010;8.608;2022-07-21T00:04:39;22.40;99.90
23550;DHT22;11953;49.010;8.608;2022-07-21T00:07:26;22.60;99.90
23550;DHT22;11953;49.010;8.608;2022-07-21T00:10:14;22.50;99.90
23550;DHT22;11953;49.010;8.608;2022-07-21T00:13:00;22.60;99.90
23550;DHT22;11953;49.010;8.608;2022-07-21T00:15:47;22.60;99.90
23550;DHT22;11953;49.010;8.608;2022-07-21T00:18:36;22.60;99.90
23550;DHT22;11953;49.010;8.608;2022-07-21T00:21:23;22.60;99.90
23550;DHT22;11953;49.010;8.608;2022-07-21T00:24:10;22.60;99.90
23550;DHT22;11953;49.010;8.608;2022-07-21T00:26:57;22.50;99.90
23550;DHT22;11953;49.010;8.608;2022-07-21T00:29:44;22.60;99.90
23550;DHT22;11953;49.010;8.608;2022-07-21T00:32:31;22.40;99.90
23550;DHT22;11953;49.010;8.608;2022-07-21T00:35:22;22.20;99.90
23550;DHT22;11953;49.010;8.608;2022-07-21T00:38:09;22.30;99.90
23550;DHT22;11953;49.010;8.608;2022-07-21T00:40:56;22.30;99.90
23550;DHT22;11953;49.010;8.608;2022-07-21T00:43:42;22.30;99.90
23550;DHT22;11953;49.010;8.608;2022-07-21T00:46:29;22.20;99.90
23550;DHT22;11953;49.010;8.608;2022-07-21T00:49:16;22.40;99.90
23550;DHT22;11953;49.010;8.608;2022-07-21T00:52:05;22.40;99.90
23550;DHT22;11953;49.010;8.608;2022-07-21T00:54:52;22.40;99.90
23550;DHT22;11953;49.010;8.608;2022-07-21T00:57:39;22.30;99.90
23550;DHT22;11953;49.010;8.608;2022-07-21T01:00:27;22.40;99.90
23550;DHT22;11953;49.010;8.608;2022-07-21T01:03:23;22.40;99.90
23550;DHT22;11953;49.010;8.608;2022-07-21T01:06:10;22.50;99.90
23550;DHT22;11953;49.010;8.608;2022-07-21T01:08:58;22.50;99.90
23550;DHT22;11953;49.010;8.608;2022-07-21T01:11:46;22.50;99.90
23550;DHT22;11953;49.010;8.608;2022-07-21T01:14:33;22.60;99.90
23550;DHT22;11953;49.010;8.608;2022-07-21T01:17:20;22.60;99.90
23550;DHT22;11953;49.010;8.608;2022-07-21T01:20:10;22.60;99.90
23550;DHT22;11953;49.010;8.608;2022-07-21T01:22:59;22.60;99.90
23550;DHT22;11953;49.010;8.608;2022-07-21T01:25:47;22.60;99.90
23550;DHT22;11953;49.010;8.608;2022-07-21T01:28:33;22.60;99.90
23550;DHT22;11953;49.010;8.608;2022-07-21T01:31:20;22.70;99.90
23550;DHT22;11953;49.010;8.608;2022-07-21T01:34:07;22.60;99.90
23550;DHT22;11953;49.010;8.608;2022-07-21T01:36:54;22.60;99.90
23550;DHT22;11953;49.010;8.608;2022-07-21T01:39:42;22.70;99.90
23550;DHT22;11953;49.010;8.608;2022-07-21T01:42:47;22.80;99.90
23550;DHT22;11953;49.010;8.608;2022-07-21T01:45:34;22.90;99.90
23550;DHT22;11953;49.010;8.608;2022-07-21T01:48:21;22.80;99.90
23550;DHT22;11953;49.010;8.608;2022-07-21T01:51:08;22.90;99.90
23550;DHT22;11953;49.010;8.608;2022-07-21T01:53:54;22.80;99.90
23550;DHT22;11953;49.010;8.608;2022-07-21T01:56:42;22.80;99.90
23550;DHT22;11953;49.010;8.608;2022-07-21T01:59:29;22.80;99.90
23550;DHT22;11953;49.010;8.608;2022-07-21T02:02:15;22.90;99.90
23550;DHT22;11953;49.010;8.608;2022-07-21T02:05:06;23.00;99.90
23550;DHT22;11953;49.010;8.608;2022-07-21T02:07:53;22.90;99.90
23550;DHT22;11953;49.010;8.608;2022-07-21T02:10:39;22.90;99.90
23550;DHT22;11953;49.010;8.608;2022-07-21T02:13:27;22.90;99.90
23550;DHT22;11953;49.010;8.608;2022-07-21T02:16:14;22.90;99.90
23550;DHT22;11953;49.010;8.608;2022-07-21T02:19:01;22.70;99.90
23550;DHT22;11953;49.010;8.608;2022-07-21T02:21:49;22.60;99.90
23550;DHT22;11953;49.010;8.608;2022-07-21T02:24:35;22.50;99.90
23550;DHT22;11953;49.010;8.608;2022-07-21T02:27:25;22.30;99.90
23550;DHT22;11953;49.010;8.608;2022-07-21T02:30:13;22.30;99.90
23550;DHT22;11953;49.010;8.608;2022-07-21T02:33:00;22.40;99.90
23550;DHT22;11953;49.010;8.608;2022-07-21T02:35:47;22.40;99.90
23550;DHT22;11953;49.010;8.608;2022-07-21T02:38:34;22.40;99.90
23550;DHT22;11953;49.010;8.608;2022-07-21T02:41:20;22.40;99.90
23550;DHT22;11953;49.010;8.608;2022-07-21T02:44:07;22.50;99.90
23550;DHT22;11953;49.010;8.608;2022-07-21T02:46:55;22.40;99.90
23550;DHT22;11953;49.010;8.608;2022-07-21T02:49:42;22.40;99.90
23550;DHT22;11953;49.010;8.608;2022-07-21T02:52:30;22.50;99.90
23550;DHT22;11953;49.010;8.608;2022-07-21T02:55:17;22.40;99.90
23550;DHT22;11953;49.010;8.608;2022-07-21T02:58:08;22.40;99.90
23550;DHT22;11953;49.010;8.608;2022-07-21T03:00:56;22.30;99.90
23550;DHT22;11953;49.010;8.608;2022-07-21T03:03:45;22.30;99.90
23550;DHT22;11953;49.010;8.608;2022-07-21T03:06:32;22.30;99.90
23550;DHT22;11953;49.010;8.608;2022-07-21T03:09:19;22.30;99.90
23550;DHT22;11953;49.010;8.608;2022-07-21T03:12:10;22.30;99.90
23550;DHT22;11953;49.010;8.608;2022-07-21T03:14:57;22.20;99.90
23550;DHT22;11953;49.010;8.608;2022-07-21T03:17:44;22.20;99.90
23550;DHT22;11953;49.010;8.608;2022-07-21T03:20:34;22.10;99.90
23550;DHT22;11953;49.010;8.608;2022-07-21T03:23:21;22.20;99.90
23550;DHT22;11953;49.010;8.608;2022-07-21T03:26:08;22.20;99.90
23550;DHT22;11953;49.010;8.608;2022-07-21T03:28:54;22.10;99.90
23550;DHT22;11953;49.010;8.608;2022-07-21T03:31:41;22.30;99.90
23550;DHT22;11953;49.010;8.608;2022-07-21T03:34:27;22.30;99.90
23550;DHT22;11953;49.010;8.608;2022-07-21T03:37:15;22.40;99.90
23550;DHT22;11953;49.010;8.608;2022-07-21T03:40:02;22.40;99.90
23550;DHT22;11953;49.010;8.608;2022-07-21T03:42:49;22.40;99.90
23550;DHT22;11953;49.010;8.608;2022-07-21T03:45:36;22.30;99.90
23550;DHT22;11953;49.010;8.608;2022-07-21T03:48:23;22.30;99.90
23550;DHT22;11953;49.010;8.608;2022-07-21T03:51:10;22.30;99.90
23550;DHT22;11953;49.010;8.608;2022-07-21T03:53:58;22.30;99.90
23550;DHT22;11953;49.010;8.608;2022-07-21T03:56:47;22.20;99.90
23550;DHT22;11953;49.010;8.608;2022-07-21T03:59:34;22.30;99.90
23550;DHT22;11953;49.010;8.608;2022-07-21T04:02:20;22.30;99.90
23550;DHT22;11953;49.010;8.608;2022-07-21T04:05:07;22.40;99.90
23550;DHT22;11953;49.010;8.608;2022-07-21T04:07:56;22.30;99.90
23550;DHT22;11953;49.010;8.608;2022-07-21T04:10:44;22.30;99.90
23550;DHT22;11953;49.010;8.608;2022-07-21T04:13:31;22.40;99.90
23550;DHT22;11953;49.010;8.608;2022-07-21T04:16:17;22.50;99.90
23550;DHT22;11953;49.010;8.608;2022-07-21T04:19:04;22.50;99.90
23550;DHT22;11953;49.010;8.608;2022-07-21T04:21:51;22.40;99.90
23550;DHT22;11953;49.010;8.608;2022-07-21T04:24:37;22.50;99.90
23550;DHT22;11953;49.010;8.608;2022-07-21T04:27:25;22.40;99.90
23550;DHT22;11953;49.010;8.608;2022-07-21T04:30:15;22.40;99.90
23550;DHT22;11953;49.010;8.608;2022-07-21T04:33:04;22.40;99.90
23550;DHT22;11953;49.010;8.608;2022-07-21T04:35:51;22.50;99.90
23550;DHT22;11953;49.010;8.608;2022-07-21T04:38:38;22.50;99.90
23550;DHT22;11953;49.010;8.608;2022-07-21T04:41:25;22.50;99.90
23550;DHT22;11953;49.010;8.608;2022-07-21T04:44:13;22.60;99.90
23550;DHT22;11953;49.010;8.608;2022-07-21T04:47:00;22.70;99.90
23550;DHT22;11953;49.010;8.608;2022-07-21T04:49:47;22.90;99.90
23550;DHT22;11953;49.010;8.608;2022-07-21T04:52:34;23.00;99.90
23550;DHT22;11953;49.010;8.608;2022-07-21T04:55:21;23.20;99.90
23550;DHT22;11953;49.010;8.608;2022-07-21T04:58:08;23.10;99.90
23550;DHT22;11953;49.010;8.608;2022-07-21T05:00:56;23.10;99.90
23550;DHT22;11953;49.010;8.608;2022-07-21T05:03:43;23.10;99.90
23550;DHT22;11953;49.010;8.608;2022-07-21T05:06:30;23.00;99.90
23550;DHT22;11953;49.010;8.608;2022-07-21T05:09:17;22.90;99.90
23550;DHT22;11953;49.010;8.608;2022-07-21T05:12:05;22.90;99.90
23550;DHT22;11953;49.010;8.608;2022-07-21T05:14:51;22.90;99.90
23550;DHT22;11953;49.010;8.608;2022-07-21T05:17:40;23.20;99.90
23550;DHT22;11953;49.010;8.608;2022-07-21T05:20:27;23.70;99.90
23550;DHT22;11953;49.010;8.608;2022-07-21T05:23:13;24.10;99.90
23550;DHT22;11953;49.010;8.608;2022-07-21T05:25:59;24.70;99.90
23550;DHT22;11953;49.010;8.608;2022-07-21T05:28:47;25.00;99.90
23550;DHT22;11953;49.010;8.608;2022-07-21T05:31:34;25.30;99.90
23550;DHT22;11953;49.010;8.608;2022-07-21T05:34:22;25.50;99.90
23550;DHT22;11953;49.010;8.608;2022-07-21T05:37:09;25.50;99.90
23550;DHT22;11953;49.010;8.608;2022-07-21T05:39:56;25.60;99.90
23550;DHT22;11953;49.010;8.608;2022-07-21T05:42:45;25.50;99.90
23550;DHT22;11953;49.010;8.608;2022-07-21T05:45:44;25.80;99.90
23550;DHT22;11953;49.010;8.608;2022-07-21T05:48:56;26.00;99.90
23550;DHT22;11953;49.010;8.608;2022-07-21T05:51:44;26.20;99.90
23550;DHT22;11953;49.010;8.608;2022-07-21T05:54:30;26.10;99.90
23550;DHT22;11953;49.010;8.608;2022-07-21T05:57:17;26.60;99.90
23550;DHT22;11953;49.010;8.608;2022-07-21T06:00:05;26.90;99.90
23550;DHT22;11953;49.010;8.608;2022-07-21T06:02:52;27.60;99.90
23550;DHT22;11953;49.010;8.608;2022-07-21T06:05:38;27.50;99.90
23550;DHT22;11953;49.010;8.608;2022-07-21T06:08:27;27.20;99.90
23550;DHT22;11953;49.010;8.608;2022-07-21T06:11:15;26.50;99.90
23550;DHT22;11953;49.010;8.608;2022-07-21T06:14:02;26.40;99.90
23550;DHT22;11953;49.010;8.608;2022-07-21T06:16:49;27.00;99.90
23550;DHT22;11953;49.010;8.608;2022-07-21T06:19:36;27.30;99.90
23550;DHT22;11953;49.010;8.608;2022-07-21T06:22:23;27.60;99.90
23550;DHT22;11953;49.010;8.608;2022-07-21T06:25:11;27.70;99.90
23550;DHT22;11953;49.010;8.608;2022-07-21T06:27:58;27.40;99.90
23550;DHT22;11953;49.010;8.608;2022-07-21T06:30:44;26.90;99.90
23550;DHT22;11953;49.010;8.608;2022-07-21T06:33:31;26.90;99.90
23550;DHT22;11953;49.010;8.608;2022-07-21T06:36:18;27.60;99.90
23550;DHT22;11953;49.010;8.608;2022-07-21T06:39:04;28.40;99.90
23550;DHT22;11953;49.010;8.608;2022-07-21T06:41:52;28.80;99.90
23550;DHT22;11953;49.010;8.608;2022-07-21T06:44:39;29.40;99.90
23550;DHT22;11953;49.010;8.608;2022-07-21T06:47:26;29.90;99.90
23550;DHT22;11953;49.010;8.608;2022-07-21T06:50:13;29.80;99.90
23550;DHT22;11953;49.010;8.608;2022-07-21T06:52:59;30.00;99.90
23550;DHT22;11953;49.010;8.608;2022-07-21T06:55:46;30.30;99.90
23550;DHT22;11953;49.010;8.608;2022-07-21T06:58:48;30.40;99.90
23550;DHT22;11953;49.010;8.608;2022-07-21T07:01:35;30.40;99.90
23550;DHT22;11953;49.010;8.608;2022-07-21T07:04:24;30.90;99.90
23550;DHT22;11953;49.010;8.608;2022-07-21T07:07:12;31.20;99.90
23550;DHT22;11953;49.010;8.608;2022-07-21T07:09:59;31.20;99.90
23550;DHT22;11953;49.010;8.608;2022-07-21T07:12:47;31.30;99.90
23550;DHT22;11953;49.010;8.608;2022-07-21T07:15:55;31.30;99.90
23550;DHT22;11953;49.010;8.608;2022-07-21T07:18:42;30.70;99.90
23550;DHT22;11953;49.010;8.608;2022-07-21T07:21:29;30.50;99.90
23550;DHT22;11953;49.010;8.608;2022-07-21T07:24:16;29.90;99.90
23550;DHT22;11953;49.010;8.608;2022-07-21T07:27:03;29.10;99.90
23550;DHT22;11953;49.010;8.608;2022-07-21T07:29:50;28.30;99.90
23550;DHT22;11953;49.010;8.608;2022-07-21T07:32:38;27.50;99.90
23550;DHT22;11953;49.010;8.608;2022-07-21T07:35:25;27.30;99.90
23550;DHT22;11953;49.010;8.608;2022-07-21T07:38:12;27.10;99.90
23550;DHT22;11953;49.010;8.608;2022-07-21T07:43:47;27.10;99.90
23550;DHT22;11953;49.010;8.608;2022-07-21T07:46:34;27.40;99.90
23550;DHT22;11953;49.010;8.608;2022-07-21T07:49:22;27.60;99.90
23550;DHT22;11953;49.010;8.608;2022-07-21T07:52:09;27.80;99.90
23550;DHT22;11953;49.010;8.608;2022-07-21T07:54:56;27.80;99.90
23550;DHT22;11953;49.010;8.608;2022-07-21T07:57:51;28.00;99.90
23550;DHT22;11953;49.010;8.608;2022-07-21T08:00:38;28.30;99.90
23550;DHT22;11953;49.010;8.608;2022-07-21T08:03:41;28.70;99.90
23550;DHT22;11953;49.010;8.608;2022-07-21T08:06:29;28.70;99.90
23550;DHT22;11953;49.010;8.608;2022-07-21T08:09:16;29.10;99.90
23550;DHT22;11953;49.010;8.608;2022-07-21T08:12:05;29.50;99.90
23550;DHT22;11953;49.010;8.608;2022-07-21T08:14:52;29.10;99.90
23550;DHT22;11953;49.010;8.608;2022-07-21T08:17:38;29.50;99.90
23550;DHT22;11953;49.010;8.608;2022-07-21T08:20:26;30.30;99.90
23550;DHT22;11953;49.010;8.608;2022-07-21T08:23:14;31.00;99.90
23550;DHT22;11953;49.010;8.608;2022-07-21T08:26:03;31.30;99.70
23550;DHT22;11953;49.010;8.608;2022-07-21T08:28:49;31.90;99.00
23550;DHT22;11953;49.010;8.608;2022-07-21T08:31:37;32.00;99.30
23550;DHT22;11953;49.010;8.608;2022-07-21T08:34:24;32.40;98.40
23550;DHT22;11953;49.010;8.608;2022-07-21T08:37:11;32.20;98.00
23550;DHT22;11953;49.010;8.608;2022-07-21T08:39:59;32.40;97.80
23550;DHT22;11953;49.010;8.608;2022-07-21T08:42:46;32.30;96.80
23550;DHT22;11953;49.010;8.608;2022-07-21T08:45:33;32.20;97.00
23550;DHT22;11953;49.010;8.608;2022-07-21T08:48:23;32.10;96.80
23550;DHT22;11953;49.010;8.608;2022-07-21T08:51:10;32.30;96.20
23550;DHT22;11953;49.010;8.608;2022-07-21T08:53:58;32.00;96.40
23550;DHT22;11953;49.010;8.608;2022-07-21T08:56:46;31.10;96.80
23550;DHT22;11953;49.010;8.608;2022-07-21T08:59:33;30.60;97.40
23550;DHT22;11953;49.010;8.608;2022-07-21T09:02:25;30.30;97.80
23550;DHT22;11953;49.010;8.608;2022-07-21T09:05:13;29.90;98.30
23550;DHT22;11953;49.010;8.608;2022-07-21T09:08:00;29.30;99.30
23550;DHT22;11953;49.010;8.608;2022-07-21T09:10:46;28.90;99.90
23550;DHT22;11953;49.010;8.608;2022-07-21T09:13:35;28.50;99.90
23550;DHT22;11953;49.010;8.608;2022-07-21T09:16:35;28.30;99.90
23550;DHT22;11953;49.010;8.608;2022-07-21T09:19:25;28.00;99.90
23550;DHT22;11953;49.010;8.608;2022-07-21T09:22:13;28.10;99.90
23550;DHT22;11953;49.010;8.608;2022-07-21T09:25:02;27.90;99.90
23550;DHT22;11953;49.010;8.608;2022-07-21T09:28:09;28.00;99.90
23550;DHT22;11953;49.010;8.608;2022-07-21T09:31:01;28.20;99.90
23550;DHT22;11953;49.010;8.608;2022-07-21T09:33:48;28.40;99.90
23550;DHT22;11953;49.010;8.608;2022-07-21T09:36:35;29.10;99.90
23550;DHT22;11953;49.010;8.608;2022-07-21T09:39:40;29.00;99.90
23550;DHT22;11953;49.010;8.608;2022-07-21T09:42:29;29.50;99.90
23550;DHT22;11953;49.010;8.608;2022-07-21T09:45:17;30.30;99.90
23550;DHT22;11953;49.010;8.608;2022-07-21T09:48:06;30.80;99.90
23550;DHT22;11953;49.010;8.608;2022-07-21T09:51:25;31.20;99.10
23550;DHT22;11953;49.010;8.608;2022-07-21T09:54:13;31.40;97.70
23550;DHT22;11953;49.010;8.608;2022-07-21T09:56:59;31.40;97.90
23550;DHT22;11953;49.010;8.608;2022-07-21T09:59:48;31.10;97.20
23550;DHT22;11953;49.010;8.608;2022-07-21T10:02:53;30.30;97.50
23550;DHT22;11953;49.010;8.608;2022-07-21T10:05:42;30.00;98.00
23550;DHT22;11953;49.010;8.608;2022-07-21T10:08:28;30.60;97.40
23550;DHT22;11953;49.010;8.608;2022-07-21T10:11:15;31.20;96.40
23550;DHT22;11953;49.010;8.608;2022-07-21T10:14:03;30.50;96.50
23550;DHT22;11953;49.010;8.608;2022-07-21T10:16:50;30.30;97.50
23550;DHT22;11953;49.010;8.608;2022-07-21T10:19:45;30.30;97.60
23550;DHT22;11953;49.010;8.608;2022-07-21T10:22:57;30.60;97.20
23550;DHT22;11953;49.010;8.608;2022-07-21T10:25:47;30.20;96.70
23550;DHT22;11953;49.010;8.608;2022-07-21T10:28:34;30.30;97.00
23550;DHT22;11953;49.010;8.608;2022-07-21T10:31:23;30.20;96.90
23550;DHT22;11953;49.010;8.608;2022-07-21T10:34:11;31.00;96.60
23550;DHT22;11953;49.010;8.608;2022-07-21T10:36:58;31.70;96.60
23550;DHT22;11953;49.010;8.608;2022-07-21T10:39:46;31.70;96.00
23550;DHT22;11953;49.010;8.608;2022-07-21T10:42:33;32.10;95.60
23550;DHT22;11953;49.010;8.608;2022-07-21T10:45:30;31.60;94.70
23550;DHT22;11953;49.010;8.608;2022-07-21T10:48:47;30.90;93.90
23550;DHT22;11953;49.010;8.608;2022-07-21T10:51:35;30.80;94.10
23550;DHT22;11953;49.010;8.608;2022-07-21T10:54:24;30.70;95.10
23550;DHT22;11953;49.010;8.608;2022-07-21T10:57:27;31.00;94.90
23550;DHT22;11953;49.010;8.608;2022-07-21T11:00:25;31.70;95.00
23550;DHT22;11953;49.010;8.608;2022-07-21T11:03:19;31.60;93.80
23550;DHT22;11953;49.010;8.608;2022-07-21T11:06:19;31.20;93.50
23550;DHT22;11953;49.010;8.608;2022-07-21T11:09:14;31.80;93.80
23550;DHT22;11953;49.010;8.608;2022-07-21T11:12:02;32.40;93.50
23550;DHT22;11953;49.010;8.608;2022-07-21T11:14:51;32.40;92.80
23550;DHT22;11953;49.010;8.608;2022-07-21T11:17:39;32.80;91.50
23550;DHT22;11953;49.010;8.608;2022-07-21T11:20:25;32.80;91.60
23550;DHT22;11953;49.010;8.608;2022-07-21T11:23:12;32.50;91.20
23550;DHT22;11953;49.010;8.608;2022-07-21T11:25:59;32.80;91.40
23550;DHT22;11953;49.010;8.608;2022-07-21T11:28:46;32.60;91.30
23550;DHT22;11953;49.010;8.608;2022-07-21T11:31:45;32.60;90.60
23550;DHT22;11953;49.010;8.608;2022-07-21T11:34:40;33.20;90.60
23550;DHT22;11953;49.010;8.608;2022-07-21T11:37:29;32.90;90.50
23550;DHT22;11953;49.010;8.608;2022-07-21T11:40:21;32.80;90.90
23550;DHT22;11953;49.010;8.608;2022-07-21T11:43:08;32.80;89.90
23550;DHT22;11953;49.010;8.608;2022-07-21T11:45:55;32.70;87.90
23550;DHT22;11953;49.010;8.608;2022-07-21T11:48:43;33.00;87.30
23550;DHT22;11953;49.010;8.608;2022-07-21T11:51:30;33.10;85.40
23550;DHT22;11953;49.010;8.608;2022-07-21T11:54:22;33.00;87.10
23550;DHT22;11953;49.010;8.608;2022-07-21T11:57:09;32.80;86.20
23550;DHT22;11953;49.010;8.608;2022-07-21T11:59:58;32.70;87.80
23550;DHT22;11953;49.010;8.608;2022-07-21T12:02:45;32.60;87.90
23550;DHT22;11953;49.010;8.608;2022-07-21T12:05:34;32.50;87.10
23550;DHT22;11953;49.010;8.608;2022-07-21T12:08:23;32.40;87.90
23550;DHT22;11953;49.010;8.608;2022-07-21T12:11:11;31.70;88.50
23550;DHT22;11953;49.010;8.608;2022-07-21T12:13:59;31.30;89.00
23550;DHT22;11953;49.010;8.608;2022-07-21T12:16:49;31.00;90.40
23550;DHT22;11953;49.010;8.608;2022-07-21T12:19:37;31.20;90.00
23550;DHT22;11953;49.010;8.608;2022-07-21T12:22:37;31.50;90.30
23550;DHT22;11953;49.010;8.608;2022-07-21T12:25:31;31.60;87.50
23550;DHT22;11953;49.010;8.608;2022-07-21T12:28:19;31.60;89.60
23550;DHT22;11953;49.010;8.608;2022-07-21T12:31:10;31.60;89.70
23550;DHT22;11953;49.010;8.608;2022-07-21T12:34:10;31.90;89.80
23550;DHT22;11953;49.010;8.608;2022-07-21T12:37:13;31.80;88.00
23550;DHT22;11953;49.010;8.608;2022-07-21T12:40:21;31.60;86.20
23550;DHT22;11953;49.010;8.608;2022-07-21T12:43:11;31.60;87.80
23550;DHT22;11953;49.010;8.608;2022-07-21T12:46:01;31.40;87.60
23550;DHT22;11953;49.010;8.608;2022-07-21T12:48:48;31.20;89.40
23550;DHT22;11953;49.010;8.608;2022-07-21T12:51:36;31.00;87.50
23550;DHT22;11953;49.010;8.608;2022-07-21T12:54:23;31.10;89.30
23550;DHT22;11953;49.010;8.608;2022-07-21T12:57:11;31.00;89.10
23550;DHT22;11953;49.010;8.608;2022-07-21T12:59:59;31.00;90.00
23550;DHT22;11953;49.010;8.608;2022-07-21T13:02:46;30.80;88.50
23550;DHT22;11953;49.010;8.608;2022-07-21T13:05:33;30.50;89.00
23550;DHT22;11953;49.010;8.608;2022-07-21T13:08:20;30.60;87.90
23550;DHT22;11953;49.010;8.608;2022-07-21T13:11:07;30.60;89.10
23550;DHT22;11953;49.010;8.608;2022-07-21T13:13:55;30.70;89.10
23550;DHT22;11953;49.010;8.608;2022-07-21T13:16:45;30.60;88.50
23550;DHT22;11953;49.010;8.608;2022-07-21T13:19:32;30.60;87.90
23550;DHT22;11953;49.010;8.608;2022-07-21T13:22:21;30.70;90.70
23550;DHT22;11953;49.010;8.608;2022-07-21T13:25:10;30.60;87.80
23550;DHT22;11953;49.010;8.608;2022-07-21T13:27:57;30.50;87.20
23550;DHT22;11953;49.010;8.608;2022-07-21T13:30:46;30.50;87.80
23550;DHT22;11953;49.010;8.608;2022-07-21T13:33:33;30.30;87.50
23550;DHT22;11953;49.010;8.608;2022-07-21T13:36:21;30.20;87.50
23550;DHT22;11953;49.010;8.608;2022-07-21T13:39:08;30.00;87.60
23550;DHT22;11953;49.010;8.608;2022-07-21T13:42:15;29.90;87.40
23550;DHT22;11953;49.010;8.608;2022-07-21T13:45:22;29.90;87.60
23550;DHT22;11953;49.010;8.608;2022-07-21T13:48:10;29.90;87.70
23550;DHT22;11953;49.010;8.608;2022-07-21T13:50:57;30.00;88.00
23550;DHT22;11953;49.010;8.608;2022-07-21T13:53:45;30.00;87.50
23550;DHT22;11953;49.010;8.608;2022-07-21T13:56:32;30.00;87.40
23550;DHT22;11953;49.010;8.608;2022-07-21T13:59:18;30.20;88.20
23550;DHT22;11953;49.010;8.608;2022-07-21T14:02:05;30.20;86.20
23550;DHT22;11953;49.010;8.608;2022-07-21T14:04:53;30.20;86.60
23550;DHT22;11953;49.010;8.608;2022-07-21T14:07:40;30.20;86.70
23550;DHT22;11953;49.010;8.608;2022-07-21T14:10:27;30.20;87.40
23550;DHT22;11953;49.010;8.608;2022-07-21T14:13:14;30.30;87.30
23550;DHT22;11953;49.010;8.608;2022-07-21T14:16:01;30.30;89.40
23550;DHT22;11953;49.010;8.608;2022-07-21T14:18:49;30.40;88.50
23550;DHT22;11953;49.010;8.608;2022-07-21T14:21:38;30.30;87.40
23550;DHT22;11953;49.010;8.608;2022-07-21T14:24:25;30.20;87.60
23550;DHT22;11953;49.010;8.608;2022-07-21T14:27:29;30.20;89.90
23550;DHT22;11953;49.010;8.608;2022-07-21T14:30:17;30.20;87.40
23550;DHT22;11953;49.010;8.608;2022-07-21T14:33:04;30.10;87.40
23550;DHT22;11953;49.010;8.608;2022-07-21T14:35:51;30.00;88.00
23550;DHT22;11953;49.010;8.608;2022-07-21T14:38:39;29.80;87.20
23550;DHT22;11953;49.010;8.608;2022-07-21T14:41:26;29.70;88.10
23550;DHT22;11953;49.010;8.608;2022-07-21T14:44:12;29.60;88.70
23550;DHT22;11953;49.010;8.608;2022-07-21T14:46:59;29.70;89.30
23550;DHT22;11953;49.010;8.608;2022-07-21T14:49:46;29.70;89.70
23550;DHT22;11953;49.010;8.608;2022-07-21T14:52:33;29.80;90.00
23550;DHT22;11953;49.010;8.608;2022-07-21T14:55:24;29.90;89.80
23550;DHT22;11953;49.010;8.608;2022-07-21T14:58:11;29.90;89.70
23550;DHT22;11953;49.010;8.608;2022-07-21T15:00:58;29.90;87.30
23550;DHT22;11953;49.010;8.608;2022-07-21T15:03:45;29.90;88.10
23550;DHT22;11953;49.010;8.608;2022-07-21T15:06:32;29.80;88.20
23550;DHT22;11953;49.010;8.608;2022-07-21T15:09:19;29.70;88.10
23550;DHT22;11953;49.010;8.608;2022-07-21T15:12:08;29.70;88.40
23550;DHT22;11953;49.010;8.608;2022-07-21T15:14:55;29.90;88.40
23550;DHT22;11953;49.010;8.608;2022-07-21T15:17:42;29.70;88.60
23550;DHT22;11953;49.010;8.608;2022-07-21T15:20:29;29.70;88.90
23550;DHT22;11953;49.010;8.608;2022-07-21T15:23:16;29.80;88.70
23550;DHT22;11953;49.010;8.608;2022-07-21T15:26:02;29.80;89.30
23550;DHT22;11953;49.010;8.608;2022-07-21T15:28:51;29.70;87.50
23550;DHT22;11953;49.010;8.608;2022-07-21T15:31:37;29.60;86.40
23550;DHT22;11953;49.010;8.608;2022-07-21T15:34:24;29.60;87.80
23550;DHT22;11953;49.010;8.608;2022-07-21T15:37:10;29.60;86.30
23550;DHT22;11953;49.010;8.608;2022-07-21T15:39:57;29.60;88.40
23550;DHT22;11953;49.010;8.608;2022-07-21T15:42:44;29.50;87.90
23550;DHT22;11953;49.010;8.608;2022-07-21T15:45:32;29.50;88.40
23550;DHT22;11953;49.010;8.608;2022-07-21T15:48:19;29.40;88.60
23550;DHT22;11953;49.010;8.608;2022-07-21T15:51:06;29.40;89.10
23550;DHT22;11953;49.010;8.608;2022-07-21T15:53:53;29.50;88.80
23550;DHT22;11953;49.010;8.608;2022-07-21T15:56:41;29.40;87.70
23550;DHT22;11953;49.010;8.608;2022-07-21T15:59:27;29.30;88.60
23550;DHT22;11953;49.010;8.608;2022-07-21T16:02:24;29.30;88.60
23550;DHT22;11953;49.010;8.608;2022-07-21T16:05:13;29.30;88.80
23550;DHT22;11953;49.010;8.608;2022-07-21T16:08:01;29.30;88.70
23550;DHT22;11953;49.010;8.608;2022-07-21T16:10:48;29.40;89.00
23550;DHT22;11953;49.010;8.608;2022-07-21T16:13:35;29.40;88.90
23550;DHT22;11953;49.010;8.608;2022-07-21T16:16:21;29.50;88.10
23550;DHT22;11953;49.010;8.608;2022-07-21T16:19:09;29.40;87.80
23550;DHT22;11953;49.010;8.608;2022-07-21T16:21:57;29.40;87.80
23550;DHT22;11953;49.010;8.608;2022-07-21T16:24:44;29.40;88.30
23550;DHT22;11953;49.010;8.608;2022-07-21T16:27:31;29.40;88.70
23550;DHT22;11953;49.010;8.608;2022-07-21T16:30:19;29.30;89.00
23550;DHT22;11953;49.010;8.608;2022-07-21T16:33:06;29.30;88.60
23550;DHT22;11953;49.010;8.608;2022-07-21T16:35:54;29.10;88.80
23550;DHT22;11953;49.010;8.608;2022-07-21T16:38:41;29.00;89.00
23550;DHT22;11953;49.010;8.608;2022-07-21T16:41:27;29.00;90.10
23550;DHT22;11953;49.010;8.608;2022-07-21T16:44:15;28.90;90.50
23550;DHT22;11953;49.010;8.608;2022-07-21T16:47:01;28.80;90.40
23550;DHT22;11953;49.010;8.608;2022-07-21T16:49:48;28.90;90.60
23550;DHT22;11953;49.010;8.608;2022-07-21T16:52:36;28.90;90.70
23550;DHT22;11953;49.010;8.608;2022-07-21T16:55:23;28.90;90.70
23550;DHT22;11953;49.010;8.608;2022-07-21T16:58:09;28.90;90.90
23550;DHT22;11953;49.010;8.608;2022-07-21T17:00:56;28.90;90.80
23550;DHT22;11953;49.010;8.608;2022-07-21T17:03:43;29.00;90.70
23550;DHT22;11953;49.010;8.608;2022-07-21T17:06:30;28.90;90.50
23550;DHT22;11953;49.010;8.608;2022-07-21T17:09:18;28.90;91.00
23550;DHT22;11953;49.010;8.608;2022-07-21T17:12:05;28.70;90.70
23550;DHT22;11953;49.010;8.608;2022-07-21T17:14:57;28.70;90.90
23550;DHT22;11953;49.010;8.608;2022-07-21T17:17:44;28.80;91.40
23550;DHT22;11953;49.010;8.608;2022-07-21T17:20:35;28.70;91.10
23550;DHT22;11953;49.010;8.608;2022-07-21T17:23:22;28.70;91.20
23550;DHT22;11953;49.010;8.608;2022-07-21T17:26:10;28.70;91.20
23550;DHT22;11953;49.010;8.608;2022-07-21T17:28:58;28.70;91.20
23550;DHT22;11953;49.010;8.608;2022-07-21T17:31:45;28.60;91.00
23550;DHT22;11953;49.010;8.608;2022-07-21T17:34:32;28.60;91.40
23550;DHT22;11953;49.010;8.608;2022-07-21T17:37:18;28.80;91.30
23550;DHT22;11953;49.010;8.608;2022-07-21T17:40:06;28.70;91.30
23550;DHT22;11953;49.010;8.608;2022-07-21T17:42:54;28.70;91.50
23550;DHT22;11953;49.010;8.608;2022-07-21T17:45:42;28.70;91.60
23550;DHT22;11953;49.010;8.608;2022-07-21T17:48:29;28.60;91.50